sensor_id;sensor_type;location;lat;lon;timestamp;temperature;humidity
17671;DHT22;8954;48.694;8.940;2022-11-25T07:13:29;1.60;99.90
17671;DHT22;8954;48.694;8.940;2022-11-25T07:15:55;1.70;99.90
17671;DHT22;8954;48.694;8.940;2022-11-25T07:18:20;1.80;99.90
17671;DHT22;8954;48.694;8.940;2022-11-25T07:20:46;1.90;99.90
17671;DHT22;8954;48.694;8.940;2022-11-25T07:23:11;2.00;99.90
17671;DHT22;8954;48.694;8.940;2022-11-25T07:25:37;2.10;99.90
17671;DHT22;8954;48.694;8.940;2022-11-25T07:28:03;2.20;99.90
17671;DHT22;8954;48.694;8.940;2022-11-25T07:30:28;2.30;99.90
17671;DHT22;8954;48.694;8.940;2022-11-25T07:32:54;2.40;99.90
17671;DHT22;8954;48.694;8.940;2022-11-25T07:35:20;2.50;99.90
17671;DHT22;8954;48.694;8.940;2022-11-25T07:37:45;2.50;99.90
17671;DHT22;8954;48.694;8.940;2022-11-25T07:40:11;2.60;99.90
17671;DHT22;8954;48.694;8.940;2022-11-25T07:42:37;2.70;99.90
17671;DHT22;8954;48.694;8.940;2022-11-25T07:45:03;2.60;99.90
17671;DHT22;8954;48.694;8.940;2022-11-25T07:47:28;2.70;99.90
17671;DHT22;8954;48.694;8.940;2022-11-25T07:49:54;2.60;99.90
17671;DHT22;8954;48.694;8.940;2022-11-25T07:52:19;2.70;99.90
17671;DHT22;8954;48.694;8.940;2022-11-25T07:54:45;2.70;99.90
17671;DHT22;8954;48.694;8.940;2022-11-25T07:57:10;2.70;99.90
17671;DHT22;8954;48.694;8.940;2022-11-25T07:59:36;2.80;99.90
17671;DHT22;8954;48.694;8.940;2022-11-25T08:02:07;2.80;99.90
17671;DHT22;8954;48.694;8.940;2022-11-25T08:04:33;2.90;99.90
17671;DHT22;8954;48.694;8.940;2022-11-25T08:06:58;3.00;99.90
17671;DHT22;8954;48.694;8.940;2022-11-25T08:09:24;3.10;99.90
17671;DHT22;8954;48.694;8.940;2022-11-25T08:11:50;3.10;99.90
17671;DHT22;8954;48.694;8.940;2022-11-25T08:14:16;3.30;99.90
17671;DHT22;8954;48.694;8.940;2022-11-25T08:16:42;3.40;99.90
17671;DHT22;8954;48.694;8.940;2022-11-25T08:19:11;3.60;99.90
17671;DHT22;8954;48.694;8.940;2022-11-25T08:21:38;3.80;99.90
17671;DHT22;8954;48.694;8.940;2022-11-25T08:24:04;4.00;99.90
17671;DHT22;8954;48.694;8.940;2022-11-25T08:26:33;4.30;99.90
17671;DHT22;8954;48.694;8.940;2022-11-25T08:29:01;4.60;99.90
17671;DHT22;8954;48.694;8.940;2022-11-25T08:31:37;4.70;99.90
17671;DHT22;8954;48.694;8.940;2022-11-25T08:34:06;5.00;99.90
17671;DHT22;8954;48.694;8.940;2022-11-25T08:36:33;5.20;99.90
17671;DHT22;8954;48.694;8.940;2022-11-25T08:39:01;5.30;99.90
17671;DHT22;8954;48.694;8.940;2022-11-25T08:41:30;5.40;99.90
17671;DHT22;8954;48.694;8.940;2022-11-25T08:43:57;5.50;99.90
17671;DHT22;8954;48.694;8.940;2022-11-25T08:46:26;5.70;99.90
17671;DHT22;8954;48.694;8.940;2022-11-25T08:48:52;5.90;99.90
17671;DHT22;8954;48.694;8.940;2022-11-25T08:51:21;6.20;99.90
17671;DHT22;8954;48.694;8.940;2022-11-25T08:53:48;6.50;99.90
17671;DHT22;8954;48.694;8.940;2022-11-25T08:56:16;6.70;99.90
17671;DHT22;8954;48.694;8.940;2022-11-25T08:58:42;6.90;99.90
17671;DHT22;8954;48.694;8.940;2022-11-25T09:01:09;7.00;99.90
17671;DHT22;8954;48.694;8.940;2022-11-25T09:03:38;7.20;99.90
17671;DHT22;8954;48.694;8.940;2022-11-25T09:06:06;7.20;99.90
17671;DHT22;8954;48.694;8.940;2022-11-25T09:08:31;7.30;99.90
17671;DHT22;8954;48.694;8.940;2022-11-25T09:10:58;7.30;99.90
17671;DHT22;8954;48.694;8.940;2022-11-25T09:13:24;7.30;99.90
17671;DHT22;8954;48.694;8.940;2022-11-25T09:15:49;7.40;99.90
17671;DHT22;8954;48.694;8.940;2022-11-25T09:18:15;7.50;99.90
17671;DHT22;8954;48.694;8.940;2022-11-25T09:20:43;7.40;99.90
17671;DHT22;8954;48.694;8.940;2022-11-25T09:23:08;7.40;99.90
17671;DHT22;8954;48.694;8.940;2022-11-25T09:25:35;7.50;99.90
17671;DHT22;8954;48.694;8.940;2022-11-25T09:28:01;7.50;99.90
17671;DHT22;8954;48.694;8.940;2022-11-25T09:30:26;7.50;99.90
17671;DHT22;8954;48.694;8.940;2022-11-25T09:32:53;7.50;99.90
17671;DHT22;8954;48.694;8.940;2022-11-25T09:35:20;7.70;99.90
17671;DHT22;8954;48.694;8.940;2022-11-25T09:37:46;7.80;99.90
17671;DHT22;8954;48.694;8.940;2022-11-25T09:40:46;7.80;99.90
17671;DHT22;8954;48.694;8.940;2022-11-25T09:46:50;8.00;99.90
17671;DHT22;8954;48.694;8.940;2022-11-25T09:52:18;8.40;99.90
17671;DHT22;8954;48.694;8.940;2022-11-25T10:00:41;9.30;99.90
17671;DHT22;8954;48.694;8.940;2022-11-25T10:03:17;10.20;99.90
17671;DHT22;8954;48.694;8.940;2022-11-25T10:08:40;10.80;99.90
17671;DHT22;8954;48.694;8.940;2022-11-25T10:13:57;11.50;99.90
17671;DHT22;8954;48.694;8.940;2022-11-25T10:16:51;13.90;99.90
17671;DHT22;8954;48.694;8.940;2022-11-25T10:21:40;16.90;99.90
17671;DHT22;8954;48.694;8.940;2022-11-25T10:24:12;16.80;99.90
17671;DHT22;8954;48.694;8.940;2022-11-25T10:26:41;17.70;99.10
17671;DHT22;8954;48.694;8.940;2022-11-25T10:31:41;16.80;96.40
17671;DHT22;8954;48.694;8.940;2022-11-25T10:34:34;15.50;98.40
17671;DHT22;8954;48.694;8.940;2022-11-25T10:37:06;14.10;99.90
17671;DHT22;8954;48.694;8.940;2022-11-25T10:39:35;13.50;99.90
17671;DHT22;8954;48.694;8.940;2022-11-25T10:42:27;13.30;99.90
17671;DHT22;8954;48.694;8.940;2022-11-25T10:44:52;12.80;99.90
17671;DHT22;8954;48.694;8.940;2022-11-25T10:52:27;11.80;99.90
17671;DHT22;8954;48.694;8.940;2022-11-25T10:55:08;11.40;99.90
17671;DHT22;8954;48.694;8.940;2022-11-25T10:57:34;10.90;99.90
17671;DHT22;8954;48.694;8.940;2022-11-25T11:00:00;10.60;99.90
17671;DHT22;8954;48.694;8.940;2022-11-25T11:02:27;10.30;99.90
17671;DHT22;8954;48.694;8.940;2022-11-25T11:04:54;10.10;99.90
17671;DHT22;8954;48.694;8.940;2022-11-25T11:07:20;9.90;99.90
17671;DHT22;8954;48.694;8.940;2022-11-25T11:09:46;9.70;99.90
17671;DHT22;8954;48.694;8.940;2022-11-25T11:14:42;9.40;99.90
17671;DHT22;8954;48.694;8.940;2022-11-25T11:17:26;9.30;99.90
17671;DHT22;8954;48.694;8.940;2022-11-25T11:22:35;9.20;99.90
17671;DHT22;8954;48.694;8.940;2022-11-25T11:27:45;9.20;99.90
17671;DHT22;8954;48.694;8.940;2022-11-25T11:30:37;9.10;99.90
17671;DHT22;8954;48.694;8.940;2022-11-25T11:36:33;9.20;99.90
17671;DHT22;8954;48.694;8.940;2022-11-25T11:39:19;9.20;99.90
17671;DHT22;8954;48.694;8.940;2022-11-25T11:44:52;9.20;99.90
17671;DHT22;8954;48.694;8.940;2022-11-25T11:50:32;9.20;99.90
17671;DHT22;8954;48.694;8.940;2022-11-25T12:04:40;9.40;99.90
17671;DHT22;8954;48.694;8.940;2022-11-25T12:10:44;9.60;99.90
17671;DHT22;8954;48.694;8.940;2022-11-25T12:13:19;9.60;99.90
17671;DHT22;8954;48.694;8.940;2022-11-25T12:15:52;9.60;99.90
17671;DHT22;8954;48.694;8.940;2022-11-25T12:21:53;9.50;99.90
17671;DHT22;8954;48.694;8.940;2022-11-25T12:27:00;9.60;99.90
17671;DHT22;8954;48.694;8.940;2022-11-25T12:29:49;9.50;99.90
17671;DHT22;8954;48.694;8.940;2022-11-25T12:32:40;9.50;99.90
17671;DHT22;8954;48.694;8.940;2022-11-25T12:35:19;9.40;99.90
17671;DHT22;8954;48.694;8.940;2022-11-25T12:37:53;9.50;99.90
17671;DHT22;8954;48.694;8.940;2022-11-25T12:40:25;9.60;99.90
17671;DHT22;8954;48.694;8.940;2022-11-25T12:43:04;9.70;99.90
17671;DHT22;8954;48.694;8.940;2022-11-25T12:45:32;9.70;99.90
17671;DHT22;8954;48.694;8.940;2022-11-25T12:47:57;9.70;99.90
17671;DHT22;8954;48.694;8.940;2022-11-25T12:50:47;9.70;99.90
17671;DHT22;8954;48.694;8.940;2022-11-25T12:53:42;9.70;99.90
17671;DHT22;8954;48.694;8.940;2022-11-25T12:56:05;9.80;99.90
17671;DHT22;8954;48.694;8.940;2022-11-25T13:01:39;9.70;99.90
17671;DHT22;8954;48.694;8.940;2022-11-25T13:07:32;9.70;99.90
17671;DHT22;8954;48.694;8.940;2022-11-25T13:10:13;9.80;99.90
17671;DHT22;8954;48.694;8.940;2022-11-25T13:15:25;10.00;99.90
17671;DHT22;8954;48.694;8.940;2022-11-25T13:18:01;10.20;99.90
17671;DHT22;8954;48.694;8.940;2022-11-25T13:23:12;10.70;99.90
17671;DHT22;8954;48.694;8.940;2022-11-25T13:25:48;11.00;99.90
17671;DHT22;8954;48.694;8.940;2022-11-25T13:28:34;11.20;99.90
17671;DHT22;8954;48.694;8.940;2022-11-25T13:36:42;11.10;99.90
17671;DHT22;8954;48.694;8.940;2022-11-25T13:39:17;11.90;99.90
17671;DHT22;8954;48.694;8.940;2022-11-25T13:41:46;13.10;99.90
17671;DHT22;8954;48.694;8.940;2022-11-25T13:44:24;13.30;99.90
17671;DHT22;8954;48.694;8.940;2022-11-25T13:46:54;13.10;99.90
17671;DHT22;8954;48.694;8.940;2022-11-25T13:49:31;12.80;99.90
17671;DHT22;8954;48.694;8.940;2022-11-25T13:54:51;12.10;99.90
17671;DHT22;8954;48.694;8.940;2022-11-25T13:57:24;11.70;99.90
17671;DHT22;8954;48.694;8.940;2022-11-25T13:59:54;11.50;99.90
17671;DHT22;8954;48.694;8.940;2022-11-25T14:26:54;10.20;99.90
17671;DHT22;8954;48.694;8.940;2022-11-25T14:29:26;10.20;99.90
17671;DHT22;8954;48.694;8.940;2022-11-25T14:32:00;10.10;99.90
17671;DHT22;8954;48.694;8.940;2022-11-25T14:34:40;10.00;99.90
17671;DHT22;8954;48.694;8.940;2022-11-25T14:37:15;9.80;99.90
17671;DHT22;8954;48.694;8.940;2022-11-25T14:39:51;9.70;99.90
17671;DHT22;8954;48.694;8.940;2022-11-25T14:42:22;9.70;99.90
17671;DHT22;8954;48.694;8.940;2022-11-25T14:44:51;9.70;99.90
17671;DHT22;8954;48.694;8.940;2022-11-25T14:47:21;9.70;99.90
17671;DHT22;8954;48.694;8.940;2022-11-25T14:49:55;9.70;99.90
17671;DHT22;8954;48.694;8.940;2022-11-25T14:52:28;9.60;99.90
17671;DHT22;8954;48.694;8.940;2022-11-25T14:54:56;9.60;99.90
17671;DHT22;8954;48.694;8.940;2022-11-25T14:57:32;9.50;99.90
17671;DHT22;8954;48.694;8.940;2022-11-25T15:00:07;9.30;99.90
17671;DHT22;8954;48.694;8.940;2022-11-25T15:02:35;9.20;99.90
17671;DHT22;8954;48.694;8.940;2022-11-25T15:05:25;9.00;99.90
